Flight Track Log - Related Links

Times and Time Zones

All times are in EDT time to prevent confusion due to time zone crossing. See the SWA554 flight status page for this flight to view local times or setup timezone preferences in your user account.

Time Position Orientation Groundspeed Altitude Reporting Facility
EDT Latitude Longitude Course Direction KTS MPH feet Rate Location/Type
Sat 06:58:44 AM 41.7103 -71.4389 154° Southeast 171 197 500  Level Boston Center
Sat 07:00:20 AM 41.6306 -71.3875 154° Southeast 260 299 3,900 2,423 Climbing Boston Center
Sat 07:01:20 AM 41.5556 -71.3747 173° South 259 298 6,800 3,350 Climbing Boston Center
Sat 07:02:20 AM 41.4761 -71.3486 166° South 289 333 10,600 2,750 Climbing Boston Center
Sat 07:03:20 AM 41.3842 -71.3194 167° South 319 367 12,300 2,500 Climbing Boston Center
Sat 07:04:20 AM 41.2794 -71.2856 166° South 376 433 15,600 2,800 Climbing Boston Center
Sat 07:05:20 AM 41.1772 -71.2792 177° South 382 440 17,900 2,273 Climbing Boston Center
Sat 07:06:32 AM 41.1222 -71.3986 239° Southwest 335 386 20,600 2,455 Climbing Boston Center
Sat 07:07:32 AM 41.0672 -71.5508 244° Southwest 356 410 23,300 2,250 Climbing Boston Center
Sat 07:08:32 AM 41.0222 -71.6589 241° Southwest 362 417 25,100 1,900 Climbing Boston Center
Sat 07:09:32 AM 40.9711 -71.8161 247° West 407 468 27,100 1,800 Climbing Boston Center
Sat 07:10:32 AM 40.9175 -71.9511 242° Southwest 417 480 28,700 1,500 Climbing Boston Center
Sat 07:11:32 AM 40.8347 -72.0697 227° Southwest 439 505 30,100 1,450 Climbing Boston Center
Sat 07:12:32 AM 40.7475 -72.1853 225° Southwest 444 511 31,600 1,350 Climbing Boston Center
Sat 07:13:32 AM 40.6539 -72.2978 222° Southwest 444 511 32,800 1,350 Climbing Boston Center
Sat 07:14:32 AM 40.5644 -72.4156 225° Southwest 454 522 34,300 1,600 Climbing Boston Center
Sat 07:15:32 AM 40.4706 -72.5356 224° Southwest 459 528 36,000 1,600 Climbing Boston Center
Sat 07:16:32 AM 40.3850 -72.6472 225° Southwest 454 522 37,500 1,000 Climbing Boston Center
Sat 07:17:32 AM 40.2931 -72.7611 223° Southwest 454 522 38,000 200 Climbing Boston Center
Sat 07:18:32 AM 40.2011 -72.8747 223° Southwest 454 522 37,900  Descending Boston Center
Sat 07:19:32 AM 40.1131 -72.9936 226° Southwest 459 528 38,000  Climbing Boston Center
Sat 07:20:52 AM 40.0050 -73.1322 225° Southwest 461 531 37,900  Descending Washington Center
Sat 07:21:52 AM 39.9133 -73.2436 223° Southwest 456 525 38,000 50 Climbing Washington Center
Sat 07:22:53 AM 39.8175 -73.3494 220° Southwest 456 525 38,000  Level Washington Center
Sat 07:23:52 AM 39.7089 -73.4581 218° Southwest 453 521 38,000  Level Washington Center
Sat 07:24:52 AM 39.6108 -73.5578 218° Southwest 453 521 38,000  Level Washington Center
Sat 07:25:53 AM 39.5125 -73.6575 218° Southwest 458 527 38,000  Level Washington Center
Sat 07:26:51 AM 39.4242 -73.7486 219° Southwest 458 527 38,000  Level Washington Center
Sat 07:27:52 AM 39.3217 -73.8503 218° Southwest 458 527 38,000  Level Washington Center
Sat 07:28:53 AM 39.2208 -73.9494 217° Southwest 458 527 38,000  Level Washington Center
Sat 07:29:54 AM 39.1200 -74.0558 219° Southwest 458 527 38,000  Level Washington Center
Sat 07:30:52 AM 39.0192 -74.1542 217° Southwest 458 527 38,000  Level Washington Center
Sat 07:31:54 AM 38.9161 -74.2550 217° Southwest 458 527 38,000 -50 Level Washington Center
Sat 07:32:52 AM 38.8172 -74.3528 218° Southwest 463 533 37,900  Descending Washington Center
Sat 07:33:51 AM 38.7161 -74.4528 218° Southwest 463 533 38,000 50 Climbing Washington Center
Sat 07:34:53 AM 38.6147 -74.5528 218° Southwest 463 533 38,000  Level Washington Center
Sat 07:35:53 AM 38.5114 -74.6550 218° Southwest 458 527 38,000  Level Washington Center
Sat 07:36:52 AM 38.4119 -74.7517 217° Southwest 458 527 38,000  Level Washington Center
Sat 07:37:53 AM 38.3106 -74.8508 218° Southwest 458 527 38,000  Level Washington Center
Sat 07:38:52 AM 38.2067 -74.9497 217° Southwest 458 527 38,000  Level Washington Center
Sat 07:39:52 AM 38.1072 -75.0533 219° Southwest 464 534 38,000  Level Washington Center
Sat 07:40:53 AM 38.0033 -75.1489 216° Southwest 464 534 38,000  Level Washington Center
Sat 07:41:54 AM 37.9014 -75.2469 217° Southwest 464 534 38,000  Level Washington Center
Sat 07:42:52 AM 37.8017 -75.3475 219° Southwest 464 534 38,000  Level Washington Center
Sat 07:43:53 AM 37.6956 -75.4447 216° Southwest 464 534 38,000  Level Washington Center
Sat 07:44:53 AM 37.5933 -75.5394 216° Southwest 464 534 38,000  Level Washington Center
Sat 07:45:54 AM 37.4911 -75.6364 217° Southwest 464 534 38,000 -50 Level Washington Center
Sat 07:46:52 AM 37.3889 -75.7331 217° Southwest 464 534 37,900  Descending Washington Center
Sat 07:47:53 AM 37.2844 -75.8267 216° Southwest 464 534 38,000 49 Climbing Washington Center
Sat 07:48:54 AM 37.1883 -75.9281 220° Southwest 459 528 38,000  Level Washington Center
Sat 07:49:52 AM 37.0919 -76.0292 220° Southwest 459 528 38,000  Level Washington Center
Sat 07:50:53 AM 36.9956 -76.1328 221° Southwest 459 528 38,000  Level Washington Center
Sat 07:51:52 AM 36.8825 -76.2333 215° Southwest 459 528 38,000  Level Washington Center
Sat 07:52:52 AM 36.7858 -76.3311 219° Southwest 459 528 38,000  Level Washington Center
Sat 07:53:53 AM 36.6892 -76.4364 221° Southwest 459 528 38,000  Level Washington Center
Sat 07:54:53 AM 36.5925 -76.5311 218° Southwest 459 528 38,000  Level Washington Center
Sat 07:55:52 AM 36.4936 -76.6281 218° Southwest 454 522 38,000  Level Washington Center
Sat 07:56:53 AM 36.3969 -76.7247 219° Southwest 454 522 38,000  Level Washington Center
Sat 07:57:52 AM 36.2958 -76.8239 218° Southwest 454 522 38,000  Level Washington Center
Sat 07:58:52 AM 36.1989 -76.9200 219° Southwest 454 522 38,000  Level Washington Center
Sat 07:59:53 AM 36.1017 -77.0186 219° Southwest 454 522 38,000  Level Washington Center
Sat 08:00:53 AM 36.0025 -77.1144 218° Southwest 454 522 38,000  Level Washington Center
Sat 08:01:54 AM 35.9072 -77.2103 219° Southwest 448 516 38,000  Level Washington Center
Sat 08:02:52 AM 35.8247 -77.2956 220° Southwest 448 516 38,000  Level Washington Center
Sat 08:03:52 AM 35.7231 -77.3906 217° Southwest 453 521 38,000  Level Washington Center
Sat 08:04:52 AM 35.6258 -77.4856 218° Southwest 453 521 38,000  Level Washington Center
Sat 08:05:53 AM 35.5281 -77.5828 219° Southwest 453 521 38,000  Level Washington Center
Sat 08:06:53 AM 35.4286 -77.6772 218° Southwest 453 521 38,000  Level Washington Center
Sat 08:07:51 AM 35.3289 -77.7714 218° Southwest 453 521 38,000  Level Washington Center
Sat 08:08:52 AM 35.2289 -77.8703 219° Southwest 453 521 38,000  Level Washington Center
Sat 08:09:53 AM 35.1289 -77.9639 217° Southwest 453 521 38,000  Level Washington Center
Sat 08:11:39 AM 34.9522 -78.1339 218° Southwest 454 522 38,000  Level Jacksonville Center
Sat 08:12:39 AM 34.8514 -78.2256 217° Southwest 454 522 38,000  Level Jacksonville Center
Sat 08:13:39 AM 34.7492 -78.3344 221° Southwest 454 522 38,000 -50 Level Jacksonville Center
Sat 08:14:39 AM 34.6522 -78.4281 218° Southwest 454 522 37,900  Descending Jacksonville Center
Sat 08:15:39 AM 34.5572 -78.5086 215° Southwest 454 522 38,000 50 Climbing Jacksonville Center
Sat 08:16:39 AM 34.4525 -78.6172 221° Southwest 454 522 38,000  Level Jacksonville Center
Sat 08:17:39 AM 34.3533 -78.7075 217° Southwest 454 522 38,000  Level Jacksonville Center
Sat 08:18:39 AM 34.2542 -78.8003 218° Southwest 454 522 38,000  Level Jacksonville Center
Sat 08:19:39 AM 34.1850 -78.9264 236° Southwest 446 513 38,000  Level Jacksonville Center
Sat 08:20:39 AM 34.1161 -79.0600 238° Southwest 464 534 38,000  Level Jacksonville Center
Sat 08:21:39 AM 34.0511 -79.1856 238° Southwest 464 534 38,000  Level Jacksonville Center
Sat 08:22:39 AM 33.9600 -79.2847 222° Southwest 440 506 38,000  Level Jacksonville Center
Sat 08:23:39 AM 33.8383 -79.3322 198° South 440 506 38,000  Level Jacksonville Center
Sat 08:24:39 AM 33.7186 -79.3769 197° South 440 506 38,000  Level Jacksonville Center
Sat 08:25:39 AM 33.6217 -79.4158 198° South 435 501 38,000  Level Jacksonville Center
Sat 08:26:39 AM 33.5019 -79.4653 199° South 442 509 38,000  Level Jacksonville Center
Sat 08:27:39 AM 33.3842 -79.5122 198° South 442 509 38,000  Level Jacksonville Center
Sat 08:28:39 AM 33.2667 -79.5614 199° South 442 509 38,000  Level Jacksonville Center
Sat 08:29:39 AM 33.1508 -79.6078 199° South 442 509 38,000  Level Jacksonville Center
Sat 08:30:39 AM 33.0331 -79.6542 198° South 442 509 38,000  Level Jacksonville Center
Sat 08:31:39 AM 32.9175 -79.7006 199° South 442 509 38,000  Level Jacksonville Center
Sat 08:32:39 AM 32.7975 -79.7492 199° South 442 509 38,000  Level Jacksonville Center
Sat 08:33:39 AM 32.6800 -79.8000 200° South 448 516 38,000  Level Jacksonville Center
Sat 08:34:39 AM 32.5600 -79.8461 198° South 453 521 38,000  Level Jacksonville Center
Sat 08:35:39 AM 32.4400 -79.8969 200° South 458 527 38,000  Level Jacksonville Center
Sat 08:36:39 AM 32.3181 -79.9450 198° South 458 527 38,000  Level Jacksonville Center
Sat 08:37:39 AM 32.1878 -79.9983 199° South 458 527 38,000  Level Jacksonville Center
Sat 08:38:39 AM 32.0678 -80.0439 198° South 458 527 38,000  Level Jacksonville Center
Sat 08:39:39 AM 31.9539 -80.0914 199° South 458 527 38,000  Level Jacksonville Center
Sat 08:40:39 AM 31.8358 -80.1367 198° South 452 520 38,000  Level Jacksonville Center
Sat 08:41:39 AM 31.7219 -80.1817 199° South 442 509 38,000  Level Jacksonville Center
Sat 08:42:39 AM 31.6061 -80.2289 199° South 442 509 38,000  Level Jacksonville Center
Sat 08:43:39 AM 31.4903 -80.2761 199° South 442 509 38,000  Level Jacksonville Center
Sat 08:44:39 AM 31.3722 -80.3231 199° South 442 509 38,000  Level Jacksonville Center
Sat 08:45:39 AM 31.2708 -80.3672 200° South 447 514 38,000  Level Jacksonville Center
Sat 08:46:39 AM 31.1506 -80.4069 196° South 442 509 38,000  Level Jacksonville Center
Sat 08:47:39 AM 31.0303 -80.4536 198° South 442 509 38,000  Level Jacksonville Center
Sat 08:48:39 AM 30.9142 -80.4978 198° South 449 517 38,000  Level Jacksonville Center
Sat 08:49:39 AM 30.7961 -80.5444 199° South 444 511 38,000  Level Jacksonville Center
Sat 08:50:39 AM 30.6819 -80.5883 198° South 444 511 38,000 -50 Level Jacksonville Center
Sat 08:51:39 AM 30.5617 -80.6344 198° South 444 511 37,900 -1,400 Descending Jacksonville Center
Sat 08:52:39 AM 30.4394 -80.6808 198° South 444 511 35,200 -2,000 Descending Jacksonville Center
Sat 08:53:39 AM 30.3233 -80.7267 199° South 456 525 33,900 -600 Descending Jacksonville Center
Sat 08:54:39 AM 30.2008 -80.7753 199° South 462 532 34,000 50 Climbing Jacksonville Center
Sat 08:55:39 AM 30.0703 -80.8236 198° South 462 532 34,000 -1,050 Level Jacksonville Center
Sat 08:56:39 AM 29.9519 -80.8669 198° South 462 532 31,900 -2,550 Descending Jacksonville Center
Sat 08:57:39 AM 29.8336 -80.9150 199° South 462 532 28,900 -2,800 Descending Jacksonville Center
Sat 08:58:39 AM 29.7175 -80.9578 198° South 456 525 26,300 -2,550 Descending Jacksonville Center
Sat 08:59:39 AM 29.6053 -81.0031 199° South 445 512 23,800 -2,400 Descending Jacksonville Center
Sat 09:00:39 AM 29.4994 -81.0433 198° South 427 491 21,500 -2,281 Descending Jacksonville Center
Sat 09:01:40 AM 29.3978 -81.0786 197° South 404 465 19,200 -2,200 Descending Jacksonville Center
Sat 09:02:39 AM 29.2981 -81.1114 196° South 391 450 17,100 -2,168 Descending Jacksonville Center
Sat 09:03:39 AM 29.2019 -81.1061 177° South 370 426 14,900 -1,600 Descending Jacksonville Center
Sat 09:04:39 AM 29.1058 -81.1006 177° South 349 402 13,900 -1,150 Descending Jacksonville Center
Sat 09:05:39 AM 29.0264 -81.0925 175° South 323 372 12,600 -1,100 Descending Jacksonville Center
Sat 09:06:39 AM 28.9447 -81.0797 172° South 306 352 11,700 -1,300 Descending Jacksonville Center
Sat 09:07:39 AM 28.8653 -81.0669 172° South 301 346 10,000 -1,626 Descending Jacksonville Center
Sat 09:08:26 AM 28.8000 -81.0500 167° South 285 328 8,800 -1,056 Descending Orlando TRACON
Sat 09:09:27 AM 28.7500 -81.0833 210° Southwest 259 298 8,100 -992 Descending Orlando TRACON
Sat 09:10:27 AM 28.7500 -81.1667 270° West 253 291 6,800 -1,300 Descending Orlando TRACON
Sat 09:11:27 AM 28.7167 -81.2333 240° Southwest 244 281 5,500 -1,100 Descending Orlando TRACON
Sat 09:12:27 AM 28.6667 -81.2500 196° South 220 253 4,600 -850 Descending Orlando TRACON
Sat 09:13:27 AM 28.6167 -81.2833 210° Southwest 174 200 3,800 -1,050 Descending Orlando TRACON
Sat 09:14:27 AM 28.5667 -81.3000 196° South 174 200 2,500 -992 Descending Orlando TRACON
Sat 09:15:28 AM 28.5333 -81.3000 180° South 144 166 1,800 -714 Descending Orlando TRACON
Sat 09:16:33 AM 28.4833 -81.3000 180° South 141 162 1,000 -738 Descending Orlando TRACON
Sat 09:18:00 AM 28.4294 -81.3090 180° South  Level Estimated
Sat 09:25:00 AM 28.4294 -81.3090 180° South  Level Estimated
Sat 09:26:00 AM 28.4294 -81.3090 180° South  Level Estimated
Sat 09:27:00 AM 28.4294 -81.3090 180° South  Level Estimated
Sat 09:28:00 AM 28.4294 -81.3090 180° South  Level Estimated

Login

Don't have an account? Register now (free) for customized features, flight alerts, and more!